Time;durP1;ratioP1;P1;durP2;ratioP2;P2;SDS_P1;SDS_P2;PMS_P1;PMS_P2;Temp;Humidity;BMP_temperature;BMP_pressure;BME280_temperature;BME280_humidity;BME280_pressure;Samples;Min_cycle;Max_cycle;Signal;HPM_P1;HPM_P2
2022/12/18 00:01:24;;;;;;;37.60;22.40;;;-3.50;76.20;;;-0.95;59.08;102867.41;5058309;28;20246;-52
2022/12/18 00:03:52;;;;;;;35.77;22.47;;;-3.50;76.30;;;-0.92;58.62;102877.63;5055414;28;20297;-51
2022/12/18 00:06:21;;;;;;;37.20;23.07;;;-3.50;76.40;;;-0.85;58.65;102876.53;5054837;28;20233;-52
2022/12/18 00:08:48;;;;;;;37.93;22.83;;;-3.50;76.40;;;-0.80;58.91;102872.91;5054793;28;20219;-51
2022/12/18 00:11:18;;;;;;;33.80;21.73;;;-3.50;76.50;;;-0.81;58.60;102868.63;5055873;28;20555;-51
2022/12/18 00:13:46;;;;;;;38.43;23.63;;;-3.50;76.50;;;-0.80;58.10;102874.66;5055645;28;20553;-53
2022/12/18 00:16:20;;;;;;;36.13;21.87;;;-3.50;76.50;;;-0.82;58.68;102874.72;5055976;28;20207;-53
2022/12/18 00:18:48;;;;;;;35.70;21.87;;;-3.50;76.40;;;-0.85;58.94;102874.81;5056023;28;20230;-52
2022/12/18 00:21:16;;;;;;;28.40;19.60;;;-3.50;76.30;;;-0.80;58.32;102872.91;5056845;28;20590;-51
2022/12/18 00:23:44;;;;;;;37.83;22.77;;;-3.50;76.40;;;-0.70;59.07;102870.88;5057812;28;20315;-52
2022/12/18 00:26:14;;;;;;;33.80;22.43;;;-3.40;77.40;;;-0.62;58.62;102881.84;5056737;28;20197;-51
2022/12/18 00:28:42;;;;;;;35.30;22.03;;;-3.40;77.10;;;-0.60;58.21;102874.00;5056542;28;20216;-55
2022/12/18 00:31:12;;;;;;;36.03;21.30;;;-3.40;76.50;;;-0.59;57.78;102868.78;5057268;28;20196;-53
2022/12/18 00:33:42;;;;;;;38.07;21.60;;;-3.30;76.20;;;-0.57;57.46;102868.75;5056925;28;20253;-55
2022/12/18 00:36:12;;;;;;;37.37;22.17;;;-3.30;76.00;;;-0.57;57.98;102869.56;5056203;28;20195;-53
2022/12/18 00:38:40;;;;;;;31.67;21.07;;;-3.30;75.80;;;-0.56;57.37;102865.25;5055089;28;20215;-53
2022/12/18 00:41:11;;;;;;;33.20;20.83;;;-3.30;75.80;;;-0.54;57.90;102871.22;5055375;28;20513;-53
2022/12/18 00:43:39;;;;;;;36.50;21.07;;;-3.30;76.30;;;-0.47;58.19;102870.97;5056415;28;20202;-51
2022/12/18 00:46:07;;;;;;;37.07;20.97;;;-3.30;76.40;;;-0.38;57.73;102869.81;5055680;28;20195;-52
2022/12/18 00:48:35;;;;;;;35.20;22.37;;;-3.20;76.70;;;-0.35;57.28;102864.53;5055170;28;20209;-54
2022/12/18 00:51:04;;;;;;;34.60;20.47;;;-3.20;76.10;;;-0.37;56.78;102862.00;5055360;28;20194;-53
2022/12/18 00:53:31;;;;;;;33.17;20.20;;;-3.20;75.50;;;-0.39;56.59;102858.63;5055562;28;20195;-51
2022/12/18 00:55:58;;;;;;;35.03;21.63;;;-3.20;75.00;;;-0.43;57.34;102862.22;5055144;28;20196;-53
2022/12/18 00:58:25;;;;;;;34.57;22.00;;;-3.20;74.90;;;-0.45;56.89;102864.00;5054805;28;20212;-52
2022/12/18 01:00:52;;;;;;;33.83;20.17;;;-3.20;74.80;;;-0.44;57.41;102860.53;5055623;28;20192;-52
2022/12/18 01:03:19;;;;;;;34.53;20.73;;;-3.20;75.10;;;-0.47;56.87;102873.56;5054880;28;20192;-52
2022/12/18 01:05:46;;;;;;;32.03;20.93;;;-3.20;75.20;;;-0.47;57.76;102880.44;5055051;28;20221;-58
2022/12/18 01:08:15;;;;;;;31.50;19.30;;;-3.20;75.00;;;-0.48;56.79;102882.22;5054203;28;20193;-51
2022/12/18 01:10:42;;;;;;;32.63;19.83;;;-3.30;74.90;;;-0.50;56.83;102890.91;5054625;28;20215;-52
2022/12/18 01:13:09;;;;;;;29.77;20.53;;;-3.30;74.90;;;-0.49;57.11;102882.25;5054814;28;20702;-52
2022/12/18 01:15:36;;;;;;;30.17;19.57;;;-3.30;75.00;;;-0.47;57.30;102886.47;5058379;28;20571;-55
2022/12/18 01:18:03;;;;;;;31.23;19.20;;;-3.30;75.20;;;-0.44;56.74;102890.69;5059022;28;20604;-53
2022/12/18 01:20:30;;;;;;;28.93;17.23;;;-3.30;75.10;;;-0.42;56.93;102894.94;5058833;28;20216;-52
2022/12/18 01:22:57;;;;;;;29.80;20.03;;;-3.30;75.10;;;-0.43;56.91;102895.84;5059346;28;20190;-52
2022/12/18 01:25:26;;;;;;;34.77;20.17;;;-3.20;75.10;;;-0.44;56.44;102895.88;5058329;28;20718;-51
2022/12/18 01:27:53;;;;;;;29.97;20.03;;;-3.30;74.90;;;-0.51;56.83;102894.38;5058631;28;20191;-54
2022/12/18 01:30:20;;;;;;;37.60;19.33;;;-3.30;74.70;;;-0.57;56.80;102892.03;5059199;28;20277;-53
2022/12/18 01:32:47;;;;;;;29.43;18.70;;;-3.30;74.60;;;-0.59;56.98;102894.63;5059034;28;20704;-53
2022/12/18 01:35:14;;;;;;;29.93;17.73;;;-3.30;74.80;;;-0.58;56.98;102893.75;5058558;28;20203;-51
2022/12/18 01:37:41;;;;;;;34.83;16.97;;;-3.30;74.90;;;-0.54;57.46;102910.00;5057062;28;20210;-51
2022/12/18 01:40:09;;;;;;;28.93;18.17;;;-3.30;75.00;;;-0.52;56.74;102914.22;5058260;28;20216;-52
2022/12/18 01:42:38;;;;;;;25.47;17.43;;;-3.30;75.00;;;-0.49;56.87;102908.09;5058333;28;20245;-50
2022/12/18 01:45:27;;;;;;;29.47;18.27;;;-3.30;75.20;;;-0.46;56.94;102903.69;5057762;28;20195;-51
2022/12/18 01:47:57;;;;;;;29.20;17.93;;;-3.30;75.40;;;-0.40;57.52;102913.81;5038241;28;20197;-52
2022/12/18 01:50:31;;;;;;;29.57;18.23;;;-3.30;75.60;;;-0.40;57.05;102908.66;5037740;28;20308;-52
2022/12/18 01:53:05;;;;;;;30.47;18.23;;;-3.20;75.40;;;-0.38;56.91;102906.84;5038000;28;20206;-53
2022/12/18 01:55:40;;;;;;;27.80;17.93;;;-3.20;75.40;;;-0.37;56.82;102911.16;5038359;28;20193;-52
2022/12/18 01:58:09;;;;;;;27.97;18.00;;;-3.20;75.00;;;-0.35;56.83;102904.19;5037747;28;20200;-53
2022/12/18 02:00:37;;;;;;;28.67;17.37;;;-3.20;75.00;;;-0.34;57.14;102903.28;5037981;28;20199;-53
2022/12/18 02:03:04;;;;;;;25.60;17.90;;;-3.20;74.80;;;-0.32;56.18;102911.00;5039644;28;20277;-52
2022/12/18 02:05:44;;;;;;;24.97;16.77;;;-3.20;74.80;;;-0.30;56.49;102909.19;5047124;28;20195;-52
2022/12/18 02:08:21;;;;;;;27.70;17.47;;;-3.20;75.20;;;-0.24;57.23;102898.66;5057540;28;20192;-52
2022/12/18 02:10:57;;;;;;;25.33;16.63;;;-3.10;75.40;;;-0.21;55.98;102894.22;5057292;28;20257;-51
2022/12/18 02:13:40;;;;;;;28.10;17.77;;;-3.10;75.00;;;-0.20;56.51;102900.22;5057271;28;20639;-52
2022/12/18 02:16:23;;;;;;;33.17;19.17;;;-3.10;74.60;;;-0.26;56.53;102896.09;5056597;28;20184;-51
2022/12/18 02:18:58;;;;;;;28.20;17.27;;;-3.10;74.10;;;-0.28;55.67;102897.03;5057118;28;20656;-51
2022/12/18 02:21:38;;;;;;;24.73;16.67;;;-3.10;73.90;;;-0.33;55.90;102901.53;5057675;28;20205;-51
2022/12/18 02:24:25;;;;;;;28.30;18.33;;;-3.10;73.90;;;-0.40;55.92;102903.47;5057532;28;20249;-51
2022/12/18 02:26:58;;;;;;;27.10;17.27;;;-3.10;73.80;;;-0.39;56.89;102904.31;5055268;28;20199;-53
2022/12/18 02:29:32;;;;;;;29.13;17.97;;;-3.20;73.90;;;-0.40;56.91;102898.31;5056438;28;20269;-52
2022/12/18 02:32:02;;;;;;;26.03;16.27;;;-3.20;74.10;;;-0.39;56.19;102905.19;5057231;28;20693;-50
2022/12/18 02:34:36;;;;;;;22.93;14.97;;;-3.20;74.50;;;-0.36;56.63;102904.25;5056476;28;20186;-53
2022/12/18 02:37:09;;;;;;;24.73;17.43;;;-3.20;74.40;;;-0.32;56.63;102890.28;5056413;28;20219;-52
2022/12/18 02:39:41;;;;;;;29.30;17.03;;;-3.10;75.10;;;-0.24;56.50;102888.31;5055620;28;20279;-51
2022/12/18 02:42:11;;;;;;;24.20;15.93;;;-3.10;75.10;;;-0.21;56.69;102889.03;5057526;28;20208;-51
2022/12/18 02:44:44;;;;;;;29.47;17.27;;;-3.00;74.60;;;-0.26;56.10;102890.94;5056443;28;20195;-52
2022/12/18 02:47:14;;;;;;;23.87;15.53;;;-3.00;73.60;;;-0.34;56.25;102887.78;5056311;28;20191;-52
2022/12/18 02:49:57;;;;;;;27.53;16.60;;;-3.10;73.00;;;-0.40;55.90;102889.69;5055594;28;20261;-51
2022/12/18 02:52:34;;;;;;;29.23;17.10;;;-3.10;73.10;;;-0.42;56.47;102894.94;5056115;28;20190;-51
2022/12/18 02:55:18;;;;;;;21.23;14.43;;;-3.10;73.40;;;-0.41;55.50;102888.88;5055719;28;20188;-53
2022/12/18 02:57:55;;;;;;;27.50;15.30;;;-3.10;73.50;;;-0.43;56.25;102898.44;5056035;28;20196;-54
2022/12/18 03:00:31;;;;;;;28.57;14.93;;;-3.20;73.40;;;-0.44;56.59;102896.72;5054516;28;20243;-52
2022/12/18 03:03:04;;;;;;;27.17;15.67;;;-3.20;73.40;;;-0.46;55.62;102893.34;5036815;28;20276;-53
2022/12/18 03:05:39;;;;;;;22.50;15.37;;;-3.20;73.60;;;-0.53;55.68;102906.53;5036252;28;20172;-52
2022/12/18 03:08:12;;;;;;;21.60;14.23;;;-3.30;73.40;;;-0.60;56.46;102905.03;5035904;28;20679;-51
2022/12/18 03:10:49;;;;;;;20.90;13.23;;;-3.30;73.50;;;-0.62;56.12;102907.69;5036098;28;20167;-51
2022/12/18 03:13:27;;;;;;;21.20;13.00;;;-3.30;73.60;;;-0.62;56.14;102907.69;5036634;28;20248;-52
2022/12/18 03:15:58;;;;;;;22.23;14.47;;;-3.30;73.70;;;-0.62;56.24;102902.50;5036521;28;20196;-51
2022/12/18 03:18:35;;;;;;;20.87;12.87;;;-3.30;73.80;;;-0.62;56.70;102907.69;5037242;28;20212;-52
2022/12/18 03:21:07;;;;;;;22.73;13.33;;;-3.40;74.00;;;-0.59;56.16;102902.38;5053428;28;20639;-52
2022/12/18 03:23:42;;;;;;;21.87;14.43;;;-3.40;74.10;;;-0.62;56.58;102905.09;5056383;28;20195;-51
2022/12/18 03:26:17;;;;;;;25.07;14.07;;;-3.40;74.00;;;-0.69;56.82;102906.19;5055550;28;20222;-52
2022/12/18 03:28:51;;;;;;;20.00;13.63;;;-3.40;73.90;;;-0.71;56.43;102900.19;5054654;28;20218;-52
2022/12/18 03:31:22;;;;;;;20.77;13.30;;;-3.40;74.00;;;-0.71;56.93;102902.78;5055006;28;20184;-52
2022/12/18 03:33:54;;;;;;;17.93;12.47;;;-3.40;74.00;;;-0.70;56.61;102904.50;5055068;28;20318;-51
2022/12/18 03:36:23;;;;;;;18.93;12.27;;;-3.40;74.00;;;-0.68;56.16;102907.84;5054294;28;20191;-52
2022/12/18 03:38:50;;;;;;;19.57;13.03;;;-3.40;74.10;;;-0.62;56.38;102907.69;5053267;28;20231;-54
2022/12/18 03:41:29;;;;;;;20.20;12.27;;;-3.40;74.30;;;-0.58;57.14;102904.09;5054498;28;20347;-52
2022/12/18 03:44:11;;;;;;;17.63;12.30;;;-3.40;74.60;;;-0.53;56.85;102897.03;5054395;28;20532;-53
2022/12/18 03:46:49;;;;;;;22.10;12.43;;;-3.40;74.60;;;-0.48;57.28;102905.50;5054951;28;20194;-51
2022/12/18 03:49:27;;;;;;;19.73;12.00;;;-3.30;75.00;;;-0.39;56.45;102902.59;5054977;28;20203;-51
2022/12/18 03:52:02;;;;;;;22.97;13.23;;;-3.20;75.40;;;-0.33;55.59;102917.03;5055562;28;20190;-51
2022/12/18 03:54:32;;;;;;;18.43;11.83;;;-3.20;74.60;;;-0.33;56.10;102925.66;5054697;28;20213;-53
2022/12/18 03:57:09;;;;;;;19.20;11.90;;;-3.10;73.80;;;-0.38;55.55;102922.38;5055244;28;21015;-52
2022/12/18 03:59:39;;;;;;;19.63;12.00;;;-3.10;73.50;;;-0.44;56.23;102914.81;5055218;28;20219;-52
2022/12/18 04:02:08;;;;;;;20.77;12.13;;;-3.10;73.00;;;-0.49;55.60;102914.13;5055653;28;20233;-52
2022/12/18 04:04:40;;;;;;;14.67;10.47;;;-3.10;72.80;;;-0.50;56.19;102901.25;5055587;28;20281;-52
2022/12/18 04:07:08;;;;;;;16.97;10.70;;;-3.20;72.90;;;-0.50;56.19;102894.31;5055446;28;20582;-52
2022/12/18 04:09:38;;;;;;;13.63;10.57;;;-3.20;73.70;;;-0.53;56.20;102886.69;5055762;28;20617;-52
2022/12/18 04:12:06;;;;;;;17.47;11.10;;;-3.30;72.90;;;-0.54;56.65;102887.56;5054692;28;20192;-52
2022/12/18 04:14:35;;;;;;;16.67;11.20;;;-3.30;73.30;;;-0.50;56.54;102878.81;5055242;28;20258;-52
2022/12/18 04:17:03;;;;;;;16.87;11.13;;;-3.30;74.40;;;-0.45;56.42;102878.69;5055357;28;20196;-51
2022/12/18 04:19:30;;;;;;;16.63;11.17;;;-3.30;73.70;;;-0.46;56.35;102883.00;5055076;28;20553;-52
2022/12/18 04:21:57;;;;;;;17.27;11.30;;;-3.20;73.60;;;-0.48;56.32;102884.81;5055715;28;20233;-53
2022/12/18 04:24:24;;;;;;;19.03;11.13;;;-3.30;73.30;;;-0.48;56.18;102882.22;5055423;28;20191;-51
2022/12/18 04:26:51;;;;;;;19.03;11.07;;;-3.30;73.40;;;-0.51;55.53;102881.47;5055705;28;20194;-53
2022/12/18 04:29:18;;;;;;;19.60;11.43;;;-3.30;73.30;;;-0.52;55.31;102884.97;5056298;28;20277;-54
2022/12/18 04:31:45;;;;;;;18.30;10.90;;;-3.30;73.30;;;-0.54;56.36;102890.16;5056863;28;20267;-54
2022/12/18 04:34:14;;;;;;;19.47;11.57;;;-3.30;73.30;;;-0.57;55.43;102898.00;5055220;28;20248;-54
2022/12/18 04:36:41;;;;;;;17.03;10.43;;;-3.30;73.10;;;-0.69;55.59;102895.84;5054384;28;20207;-52
2022/12/18 04:39:08;;;;;;;16.40;10.87;;;-3.30;72.90;;;-0.73;56.19;102894.22;5054429;28;20722;-53
2022/12/18 04:41:35;;;;;;;20.23;11.43;;;-3.40;73.10;;;-0.80;56.05;102893.59;5055571;28;20196;-52
2022/12/18 04:44:02;;;;;;;15.10;10.20;;;-3.40;73.10;;;-0.81;56.07;102891.06;5054952;28;20245;-52
2022/12/18 04:46:29;;;;;;;12.93;9.47;;;-3.50;73.00;;;-0.75;56.73;102893.44;5055442;28;20667;-51
2022/12/18 04:48:56;;;;;;;18.87;10.97;;;-3.40;73.80;;;-0.72;56.15;102895.94;5054274;28;20211;-50
2022/12/18 04:51:24;;;;;;;17.00;10.83;;;-3.40;73.80;;;-0.71;56.29;102902.78;5054369;28;20257;-53
2022/12/18 04:53:53;;;;;;;18.97;10.77;;;-3.40;73.40;;;-0.73;55.78;102899.41;5054747;28;20202;-54
2022/12/18 04:56:20;;;;;;;18.07;11.13;;;-3.40;73.30;;;-0.78;55.89;102893.53;5054929;28;20264;-52
2022/12/18 04:58:47;;;;;;;16.73;10.23;;;-3.50;73.00;;;-0.82;56.47;102904.88;5053757;28;20610;-52
2022/12/18 05:01:16;;;;;;;15.97;10.57;;;-3.50;73.00;;;-0.82;56.01;102904.88;5053982;28;20226;-52
2022/12/18 05:03:44;;;;;;;16.67;10.23;;;-3.50;73.20;;;-0.85;56.34;102902.38;5053877;28;20219;-53
2022/12/18 05:06:11;;;;;;;15.53;9.90;;;-3.50;73.20;;;-0.86;56.24;102903.28;5054244;28;20195;-51
2022/12/18 05:08:40;;;;;;;16.97;10.13;;;-3.50;73.30;;;-0.89;55.95;102909.41;5053489;28;20214;-52
2022/12/18 05:11:11;;;;;;;15.27;10.20;;;-3.60;73.10;;;-0.89;55.69;102924.03;5054039;28;20200;-53
2022/12/18 05:13:38;;;;;;;14.17;10.43;;;-3.60;73.10;;;-0.90;56.13;102918.03;5053838;28;20181;-51
2022/12/18 05:16:07;;;;;;;18.87;9.80;;;-3.60;73.30;;;-0.87;56.79;102917.94;5053959;28;20229;-52
2022/12/18 05:18:35;;;;;;;15.13;9.83;;;-3.60;73.50;;;-0.87;55.89;102923.09;5054093;28;20247;-53
2022/12/18 05:21:03;;;;;;;15.87;9.57;;;-3.60;73.30;;;-0.86;56.19;102921.38;5054283;28;20253;-50
2022/12/18 05:23:30;;;;;;;15.77;8.87;;;-3.60;73.20;;;-0.89;56.47;102921.47;5054263;28;20278;-52
2022/12/18 05:26:01;;;;;;;13.73;9.37;;;-3.60;73.10;;;-0.90;56.25;102922.34;5054296;28;20191;-53
2022/12/18 05:28:31;;;;;;;14.07;8.87;;;-3.60;73.10;;;-0.91;56.46;102933.59;5054104;28;20725;-51
2022/12/18 05:31:02;;;;;;;12.87;9.10;;;-3.60;73.30;;;-0.88;56.00;102943.84;5054135;28;20696;-52
2022/12/18 05:33:33;;;;;;;17.20;10.00;;;-3.60;73.50;;;-0.92;56.45;102947.38;5054168;28;20202;-50
2022/12/18 05:36:03;;;;;;;15.77;9.80;;;-3.60;73.90;;;-0.91;56.41;102941.34;5054176;28;20735;-52
2022/12/18 05:38:32;;;;;;;14.43;9.43;;;-3.60;73.30;;;-0.83;56.24;102947.09;5052094;28;20203;-53
2022/12/18 05:41:01;;;;;;;18.60;10.23;;;-3.60;73.80;;;-0.78;55.97;102945.22;5052702;28;20606;-53
2022/12/18 05:43:29;;;;;;;14.40;9.20;;;-3.60;74.00;;;-0.70;56.08;102940.66;5052457;28;20199;-51
2022/12/18 05:45:57;;;;;;;15.53;9.40;;;-3.50;74.10;;;-0.67;55.82;102935.41;5047734;28;20196;-51
2022/12/18 05:48:24;;;;;;;11.87;8.23;;;-3.50;73.80;;;-0.66;55.47;102942.25;5031823;28;20196;-54
2022/12/18 05:50:51;;;;;;;14.57;9.53;;;-3.50;73.30;;;-0.68;55.98;102944.03;5045042;28;20200;-51
2022/12/18 05:53:20;;;;;;;13.23;9.57;;;-3.50;73.10;;;-0.68;56.24;102941.47;5052967;28;20243;-53
2022/12/18 05:55:47;;;;;;;13.57;9.20;;;-3.50;72.90;;;-0.68;56.04;102923.38;5054643;28;20194;-52
2022/12/18 05:58:16;;;;;;;15.53;9.33;;;-3.50;73.20;;;-0.67;55.53;102925.91;5053239;28;20202;-54
2022/12/18 06:00:45;;;;;;;14.77;9.53;;;-3.40;73.30;;;-0.66;55.67;102934.50;5054401;28;20688;-50
2022/12/18 06:03:13;;;;;;;18.10;9.13;;;-3.40;73.10;;;-0.69;54.70;102932.03;5056257;28;20195;-53
2022/12/18 06:05:44;;;;;;;15.93;9.70;;;-3.40;72.60;;;-0.71;55.83;102923.47;5056658;28;20643;-54
2022/12/18 06:08:12;;;;;;;13.70;9.47;;;-3.40;72.50;;;-0.68;55.14;102931.13;5056470;28;20590;-53
2022/12/18 06:10:40;;;;;;;14.67;9.23;;;-3.40;72.70;;;-0.69;55.40;102932.03;5056994;28;20245;-52
2022/12/18 06:13:08;;;;;;;14.20;9.67;;;-3.50;72.10;;;-0.74;54.66;102944.25;5056329;28;20582;-54
2022/12/18 06:15:38;;;;;;;15.57;8.90;;;-3.50;71.90;;;-0.82;54.69;102947.06;5056342;28;20191;-51
2022/12/18 06:18:05;;;;;;;16.33;10.03;;;-3.50;71.60;;;-0.88;55.41;102938.66;5056815;28;20249;-53
2022/12/18 06:20:32;;;;;;;12.80;9.47;;;-3.50;71.70;;;-0.96;55.31;102943.22;5056317;28;20213;-52
2022/12/18 06:23:00;;;;;;;11.93;8.23;;;-3.60;71.70;;;-1.09;55.40;102955.63;5056401;28;20200;-51
2022/12/18 06:25:27;;;;;;;13.60;8.70;;;-3.70;71.70;;;-1.13;55.96;102946.28;5055796;28;20283;-53
2022/12/18 06:27:54;;;;;;;11.33;8.57;;;-3.70;71.90;;;-1.20;55.60;102943.94;5056113;28;20191;-51
2022/12/18 06:30:22;;;;;;;16.53;9.60;;;-3.80;71.90;;;-1.23;55.58;102951.75;5055695;28;20233;-53
2022/12/18 06:32:51;;;;;;;12.90;8.90;;;-3.80;72.20;;;-1.29;55.62;102954.53;5055925;28;20191;-54
2022/12/18 06:35:22;;;;;;;12.83;8.73;;;-3.90;72.30;;;-1.35;56.03;102952.13;5055622;28;20196;-53
2022/12/18 06:37:50;;;;;;;14.40;9.43;;;-3.90;72.50;;;-1.31;56.57;102948.56;5054678;28;20214;-52
2022/12/18 06:40:18;;;;;;;15.33;9.93;;;-3.90;72.70;;;-1.27;56.65;102948.44;5055232;28;20692;-52
2022/12/18 06:42:45;;;;;;;13.53;9.33;;;-3.90;73.00;;;-1.21;56.17;102947.44;5055907;28;20192;-55
2022/12/18 06:45:12;;;;;;;13.50;9.00;;;-3.90;73.30;;;-1.14;56.10;102951.53;5054734;28;20678;-51
2022/12/18 06:47:39;;;;;;;12.93;8.43;;;-3.90;73.40;;;-1.13;55.97;102948.88;5054938;28;20202;-50
2022/12/18 06:50:08;;;;;;;14.43;9.47;;;-3.90;73.40;;;-1.14;55.67;102951.53;5055426;28;20293;-52
2022/12/18 06:52:35;;;;;;;15.87;9.27;;;-3.90;73.20;;;-1.15;55.98;102953.25;5055656;28;20268;-53
2022/12/18 06:55:02;;;;;;;12.93;9.13;;;-3.90;73.10;;;-1.14;56.17;102964.44;5055522;28;20248;-56
2022/12/18 06:57:29;;;;;;;12.93;8.77;;;-3.90;73.20;;;-1.19;56.32;102971.47;5055219;28;20195;-53
2022/12/18 06:59:56;;;;;;;14.27;8.83;;;-3.90;72.90;;;-1.20;55.86;102969.75;5054634;28;20243;-53
2022/12/18 07:02:23;;;;;;;13.07;8.57;;;-3.90;72.80;;;-1.20;56.55;102972.34;5055022;28;20195;-52
2022/12/18 07:04:50;;;;;;;12.77;8.37;;;-3.90;72.80;;;-1.19;55.84;102968.88;5053798;28;20541;-52
2022/12/18 07:07:19;;;;;;;15.97;10.20;;;-3.90;72.90;;;-1.21;56.54;102968.09;5055334;28;20195;-50
2022/12/18 07:09:46;;;;;;;14.43;8.50;;;-3.90;73.00;;;-1.25;55.98;102971.63;5054554;28;20207;-52
2022/12/18 07:12:13;;;;;;;16.00;9.27;;;-3.90;72.90;;;-1.26;56.11;102982.88;5054623;28;20195;-52
2022/12/18 07:14:39;;;;;;;18.60;9.47;;;-3.90;72.80;;;-1.31;55.98;102983.00;5055621;28;20196;-52
2022/12/18 07:17:07;;;;;;;11.87;8.93;;;-3.90;72.70;;;-1.34;56.17;102987.38;5055150;28;20218;-51
2022/12/18 07:19:34;;;;;;;12.57;8.63;;;-3.90;72.80;;;-1.37;56.16;102986.59;5054622;28;20406;-54
2022/12/18 07:22:01;;;;;;;16.57;9.00;;;-4.00;72.90;;;-1.41;56.50;102982.41;5055468;28;20196;-52
2022/12/18 07:24:30;;;;;;;12.87;8.90;;;-4.00;73.00;;;-1.45;56.83;102985.94;5054778;28;20728;-52
2022/12/18 07:26:57;;;;;;;15.90;9.13;;;-4.00;73.00;;;-1.47;57.23;102987.72;5054651;28;20727;-57
2022/12/18 07:29:24;;;;;;;13.17;8.77;;;-4.00;73.10;;;-1.43;56.72;102986.72;5054217;28;20263;-53
2022/12/18 07:31:51;;;;;;;14.07;8.93;;;-4.00;73.40;;;-1.40;56.74;102985.81;5054881;28;20195;-53
2022/12/18 07:34:18;;;;;;;11.37;8.37;;;-4.00;73.40;;;-1.38;56.75;102984.88;5054886;28;20285;-53
2022/12/18 07:36:45;;;;;;;16.80;9.23;;;-4.00;73.60;;;-1.36;56.92;102995.19;5054643;28;20812;-53
2022/12/18 07:39:12;;;;;;;12.43;8.63;;;-4.00;73.40;;;-1.28;57.24;102992.38;5053253;28;20289;-52
2022/12/18 07:41:45;;;;;;;14.10;9.23;;;-4.00;73.90;;;-1.23;56.69;102982.75;5054237;28;20219;-54
2022/12/18 07:44:13;;;;;;;13.87;9.47;;;-4.00;73.50;;;-1.21;55.94;102983.56;5053947;28;20256;-54
2022/12/18 07:46:40;;;;;;;15.03;8.93;;;-3.90;73.20;;;-1.20;56.59;102980.09;5053823;28;20252;-53
2022/12/18 07:49:07;;;;;;;13.63;9.67;;;-3.90;73.00;;;-1.14;57.02;102977.34;5054120;28;20264;-52
2022/12/18 07:51:34;;;;;;;12.03;8.67;;;-3.90;73.30;;;-1.08;55.46;102966.81;5054297;28;20240;-51
2022/12/18 07:54:01;;;;;;;18.83;9.90;;;-3.80;73.30;;;-1.04;56.05;102971.00;5054736;28;20258;-54
2022/12/18 07:56:28;;;;;;;14.77;9.17;;;-3.80;72.80;;;-1.12;55.11;102972.97;5054093;28;20200;-52
2022/12/18 07:58:59;;;;;;;11.27;8.13;;;-3.80;72.00;;;-1.14;55.31;102974.75;5054101;28;20218;-53
2022/12/18 08:01:26;;;;;;;14.47;9.30;;;-3.80;72.10;;;-1.12;55.72;102972.97;5054144;28;20273;-52
2022/12/18 08:03:54;;;;;;;15.93;8.93;;;-3.80;72.30;;;-1.05;55.82;102969.31;5054298;28;20675;-53
2022/12/18 08:06:21;;;;;;;15.53;9.23;;;-3.80;72.70;;;-1.02;55.32;102956.31;5053937;28;20195;-53
2022/12/18 08:08:52;;;;;;;13.77;8.80;;;-3.70;72.30;;;-1.01;55.29;102960.59;5053875;28;20219;-54
2022/12/18 08:11:19;;;;;;;12.23;8.40;;;-3.70;71.90;;;-0.97;54.92;102957.00;5053873;28;20216;-52
2022/12/18 08:13:47;;;;;;;12.17;8.40;;;-3.70;72.00;;;-0.94;55.58;102962.94;5053836;28;20184;-54
2022/12/18 08:16:17;;;;;;;13.63;8.73;;;-3.70;72.10;;;-0.90;54.75;102955.94;5053101;28;20214;-52
2022/12/18 08:18:45;;;;;;;14.17;9.47;;;-3.70;72.10;;;-0.83;55.20;102962.59;5053556;28;20329;-52
2022/12/18 08:21:17;;;;;;;13.40;8.80;;;-3.60;72.20;;;-0.83;54.27;102965.19;5054001;28;20210;-53
2022/12/18 08:23:46;;;;;;;12.83;8.53;;;-3.70;71.80;;;-0.85;54.85;102957.50;5054401;28;20175;-53
2022/12/18 08:26:15;;;;;;;14.47;9.10;;;-3.60;71.50;;;-0.85;55.01;102962.66;5054555;28;20713;-52
2022/12/18 08:28:43;;;;;;;15.43;9.43;;;-3.60;71.90;;;-0.82;55.68;102962.56;5054605;28;20741;-52
2022/12/18 08:31:10;;;;;;;13.00;8.63;;;-3.50;72.00;;;-0.74;55.64;102965.75;5054275;28;20192;-53
2022/12/18 08:33:41;;;;;;;12.87;8.70;;;-3.50;72.10;;;-0.63;54.88;102962.84;5056022;28;20183;-51
2022/12/18 08:36:10;;;;;;;14.77;8.97;;;-3.40;72.40;;;-0.59;54.75;102963.63;5054522;28;20197;-53
2022/12/18 08:38:38;;;;;;;12.80;8.53;;;-3.40;71.60;;;-0.58;54.71;102966.13;5052763;28;20223;-54
2022/12/18 08:41:07;;;;;;;14.50;9.17;;;-3.30;71.20;;;-0.59;54.10;102969.59;5053751;28;20276;-57
2022/12/18 08:46:23;;;;;;;12.10;8.23;;;-3.30;71.10;;;-0.61;54.70;102965.38;5053578;28;20232;-53
2022/12/18 08:48:54;;;;;;;17.63;10.50;;;-3.30;70.90;;;-0.65;54.87;102959.47;5053096;28;20215;-55
2022/12/18 08:51:21;;;;;;;13.00;8.93;;;-3.30;70.80;;;-0.75;54.71;102958.06;5052340;28;20192;-50
2022/12/18 08:53:48;;;;;;;13.97;9.80;;;-3.30;70.70;;;-0.85;54.92;102956.63;5053389;28;20720;-51
2022/12/18 08:56:16;;;;;;;15.60;10.17;;;-3.30;70.90;;;-0.85;55.69;102951.47;5053403;28;20191;-54
2022/12/18 08:58:43;;;;;;;14.40;9.43;;;-3.30;71.10;;;-0.80;55.80;102945.28;5052949;28;20211;-51
2022/12/18 09:01:12;;;;;;;15.17;8.90;;;-3.30;71.40;;;-0.69;55.04;102932.03;5052938;28;20215;-54
2022/12/18 09:03:40;;;;;;;17.00;10.03;;;-3.30;72.40;;;-0.49;54.95;102939.13;5053221;28;20561;-52
2022/12/18 09:06:12;;;;;;;13.53;9.87;;;-3.30;72.10;;;-0.34;55.10;102938.66;5053004;28;20199;-53
2022/12/18 09:08:40;;;;;;;13.27;9.83;;;-3.20;72.00;;;-0.32;55.12;102929.94;5052467;28;20214;-52
2022/12/18 09:11:18;;;;;;;13.77;9.07;;;-3.10;71.80;;;-0.38;54.89;102937.06;5052935;28;20193;-53
2022/12/18 09:13:45;;;;;;;12.83;9.27;;;-3.10;71.60;;;-0.36;55.12;102946.47;5062434;28;20195;-52
2022/12/18 09:16:12;;;;;;;14.63;9.37;;;-3.00;71.70;;;-0.23;55.42;102952.91;5068761;28;20195;-50
2022/12/18 09:18:39;;;;;;;14.33;9.03;;;-2.90;72.00;;;-0.17;54.54;102957.88;5068532;28;20289;-53
2022/12/18 09:21:11;;;;;;;18.63;8.63;;;-2.90;71.80;;;-0.14;55.70;102957.78;5068792;28;20211;-53
2022/12/18 09:23:38;;;;;;;15.20;9.30;;;-2.80;71.90;;;-0.08;54.78;102957.59;5069192;28;20328;-55
2022/12/18 09:26:05;;;;;;;13.43;9.20;;;-2.70;71.90;;;-0.02;54.84;102957.38;5069245;28;20189;-52
2022/12/18 09:28:33;;;;;;;14.13;10.00;;;-2.70;71.80;;;0.12;54.48;102961.25;5063447;28;20214;-51
2022/12/18 09:31:07;;;;;;;13.93;9.07;;;-2.60;71.90;;;0.27;54.17;102963.28;5066476;28;20181;-52
2022/12/18 09:33:35;;;;;;;15.60;9.10;;;-2.50;71.90;;;0.40;54.22;102969.72;5063896;28;20184;-51
2022/12/18 09:36:05;;;;;;;13.77;8.80;;;-2.40;71.80;;;0.55;54.16;102979.53;5066679;28;20195;-52
2022/12/18 09:38:34;;;;;;;13.30;9.50;;;-2.40;71.90;;;0.68;53.68;102980.78;5068424;28;20245;-52
2022/12/18 09:41:15;;;;;;;16.03;9.50;;;-2.30;71.70;;;0.80;53.42;102979.50;5070757;28;20322;-52
2022/12/18 09:43:48;;;;;;;12.77;9.20;;;-2.20;71.20;;;0.85;52.84;102975.84;5069484;28;20209;-53
2022/12/18 09:46:29;;;;;;;14.77;9.87;;;-2.10;70.90;;;0.89;53.04;102974.81;5068798;28;20192;-52
2022/12/18 09:49:03;;;;;;;17.47;9.33;;;-2.00;70.30;;;0.95;52.87;102984.13;5067612;28;20229;-52
2022/12/18 09:51:40;;;;;;;16.10;9.43;;;-1.90;70.20;;;1.04;53.59;102982.03;5067803;28;20174;-52
2022/12/18 09:54:17;;;;;;;12.73;9.03;;;-1.80;70.40;;;1.19;53.31;102988.34;5067860;28;20252;-54
2022/12/18 09:56:44;;;;;;;13.17;8.70;;;-1.80;70.30;;;1.31;52.50;102993.94;5062190;28;20195;-53
2022/12/18 09:59:23;;;;;;;13.10;8.80;;;-1.70;70.20;;;1.42;52.48;102992.66;5056104;28;20223;-53
2022/12/18 10:01:51;;;;;;;13.63;8.47;;;-1.60;70.40;;;1.35;51.75;103000.66;5057836;28;20688;-54
2022/12/18 10:04:18;;;;;;;13.13;8.60;;;-1.60;69.20;;;1.34;51.89;102982.59;5057459;28;20287;-52
2022/12/18 10:06:54;;;;;;;15.20;9.57;;;-1.50;69.30;;;1.39;52.13;102978.06;5056994;28;20186;-53
2022/12/18 10:09:36;;;;;;;12.97;9.13;;;-1.50;69.30;;;1.46;51.91;102981.25;5056314;28;20584;-54
2022/12/18 10:12:16;;;;;;;12.97;9.13;;;-1.50;69.30;;;1.47;52.16;102981.22;5056754;28;20642;-53
2022/12/18 10:14:53;;;;;;;13.73;9.23;;;-1.40;68.90;;;1.51;52.67;102984.53;5057577;28;20195;-52
2022/12/18 10:17:35;;;;;;;18.10;9.77;;;-1.40;68.80;;;1.46;51.73;102989.03;5056390;28;20680;-53